createdAt,value
2017-08-11T09:12:58.172Z,70.41
2017-08-11T09:12:58.745Z,70.47
2017-08-11T09:12:59.339Z,70.50
2017-08-11T09:12:59.940Z,70.50
2017-08-11T09:13:00.544Z,70.41
2017-08-11T09:13:01.151Z,70.41
2017-08-11T09:13:01.744Z,70.50
2017-08-11T09:13:02.340Z,70.50
2017-08-11T09:13:56.823Z,69.45
2017-08-11T09:13:57.416Z,69.60
2017-08-11T09:13:58.017Z,69.70
2017-08-11T09:13:58.623Z,69.83
2017-08-11T09:13:59.219Z,69.64
2017-08-11T09:13:59.824Z,69.60
2017-08-11T09:14:00.420Z,69.51
2017-08-11T09:14:01.019Z,69.60
2017-08-11T09:14:54.477Z,69.22
2017-08-11T09:14:55.077Z,69.12
2017-08-11T09:14:55.676Z,69.22
2017-08-11T09:14:56.276Z,69.31
2017-08-11T09:14:56.873Z,69.12
2017-08-11T09:14:57.469Z,69.12
2017-08-11T09:14:58.075Z,69.31
2017-08-11T09:14:58.673Z,69.15
2017-08-11T09:15:52.132Z,69.79
2017-08-11T09:15:52.729Z,69.79
2017-08-11T09:15:53.329Z,69.79
2017-08-11T09:15:53.925Z,69.51
2017-08-11T09:15:54.525Z,69.79
2017-08-11T09:15:55.125Z,69.60
2017-08-11T09:15:55.728Z,69.60
2017-08-11T09:15:56.327Z,69.60
2017-08-11T09:16:51.317Z,69.60
2017-08-11T09:16:51.909Z,69.60
2017-08-11T09:16:52.511Z,69.60
2017-08-11T09:16:53.111Z,69.89
2017-08-11T09:16:53.712Z,69.60
2017-08-11T09:16:54.312Z,69.60
2017-08-11T09:16:54.912Z,69.60
2017-08-11T09:17:48.483Z,69.79
2017-08-11T09:17:49.052Z,69.79
2017-08-11T09:17:49.653Z,70.09
2017-08-11T09:17:50.256Z,69.70
2017-08-11T09:17:50.853Z,69.79
2017-08-11T09:17:51.455Z,69.79
2017-08-11T09:17:52.051Z,69.70
2017-08-11T09:17:52.656Z,69.51
2017-08-11T09:18:47.130Z,69.12
2017-08-11T09:18:47.730Z,69.12
2017-08-11T09:18:48.331Z,69.12
2017-08-11T09:18:48.924Z,69.12
2017-08-11T09:18:49.531Z,69.12
2017-08-11T09:18:50.124Z,69.12
2017-08-11T09:18:50.728Z,69.22
2017-08-11T09:18:51.323Z,69.31
2017-08-11T09:19:44.787Z,69.02
2017-08-11T09:19:45.376Z,69.02
2017-08-11T09:19:45.980Z,69.41
2017-08-11T09:19:46.580Z,68.93
2017-08-11T09:19:47.179Z,69.12
2017-08-11T09:19:47.783Z,69.22
2017-08-11T09:19:48.386Z,69.12
2017-08-11T09:19:48.980Z,69.02
2017-08-11T09:20:42.440Z,69.70
2017-08-11T09:20:43.029Z,69.51
2017-08-11T09:20:43.629Z,69.70
2017-08-11T09:20:44.229Z,69.70
2017-08-11T09:20:44.836Z,69.67
2017-08-11T09:20:45.427Z,69.41
2017-08-11T09:20:46.029Z,69.41
2017-08-11T09:20:46.634Z,69.51
2017-08-11T09:21:40.594Z,69.38
2017-08-11T09:21:41.198Z,69.60
2017-08-11T09:21:41.796Z,69.70
2017-08-11T09:21:42.393Z,69.57
2017-08-11T09:21:42.991Z,69.60
2017-08-11T09:21:43.590Z,69.60
2017-08-11T09:21:44.195Z,69.70
2017-08-11T09:22:38.662Z,69.60
2017-08-11T09:22:39.255Z,69.51
2017-08-11T09:22:39.856Z,69.60
2017-08-11T09:22:40.455Z,69.51
2017-08-11T09:22:41.059Z,69.60
2017-08-11T09:22:41.652Z,69.51
2017-08-11T09:22:42.259Z,69.60
2017-08-11T09:22:42.852Z,69.70
2017-08-11T09:23:36.330Z,69.57
2017-08-11T09:23:36.909Z,69.47
2017-08-11T09:23:37.511Z,69.70
2017-08-11T09:23:38.111Z,69.67
2017-08-11T09:23:38.709Z,69.67
2017-08-11T09:23:39.311Z,69.47
2017-08-11T09:23:39.910Z,69.67
2017-08-11T09:23:40.510Z,69.79
2017-08-11T09:24:33.968Z,69.95
2017-08-11T09:24:34.565Z,69.85
2017-08-11T09:24:35.160Z,69.95
2017-08-11T09:24:35.761Z,69.85
2017-08-11T09:24:36.361Z,69.67
2017-08-11T09:24:36.957Z,69.76
2017-08-11T09:24:37.560Z,69.57
2017-08-11T09:24:38.160Z,69.76
2017-08-11T09:25:31.615Z,70.43
2017-08-11T09:25:32.214Z,70.43
2017-08-11T09:25:32.808Z,70.34
2017-08-11T09:25:33.411Z,70.43
2017-08-11T09:25:34.015Z,70.34
2017-08-11T09:25:34.607Z,70.43
2017-08-11T09:25:35.212Z,70.43
2017-08-11T09:25:35.811Z,70.43
2017-08-11T09:26:29.271Z,70.34
2017-08-11T09:26:29.868Z,70.34
2017-08-11T09:26:30.461Z,70.34
2017-08-11T09:26:31.060Z,70.43
2017-08-11T09:26:31.664Z,70.43
2017-08-11T09:26:32.264Z,70.15
2017-08-11T09:26:32.859Z,70.24
2017-08-11T09:26:33.466Z,70.24
2017-08-11T09:27:26.919Z,70.34
2017-08-11T09:27:27.515Z,70.05
2017-08-11T09:27:28.112Z,70.43
2017-08-11T09:27:28.712Z,70.43
2017-08-11T09:27:29.314Z,70.34
2017-08-11T09:27:29.913Z,70.53
2017-08-11T09:27:30.518Z,70.43
2017-08-11T09:27:31.118Z,70.15
2017-08-11T09:28:25.616Z,70.72
2017-08-11T09:28:26.192Z,70.82
2017-08-11T09:28:26.791Z,70.72
2017-08-11T09:28:27.390Z,70.82
2017-08-11T09:28:27.991Z,70.82
2017-08-11T09:28:28.592Z,70.92
2017-08-11T09:28:29.190Z,70.82
2017-08-11T09:28:29.795Z,70.72
2017-08-11T09:29:24.270Z,70.59
2017-08-11T09:29:24.874Z,70.92
2017-08-11T09:29:25.463Z,70.62
2017-08-11T09:29:26.066Z,70.62
2017-08-11T09:29:26.665Z,70.62
2017-08-11T09:29:27.269Z,70.68
2017-08-11T09:29:27.865Z,70.82
2017-08-11T09:29:28.462Z,70.62
2017-08-11T09:30:22.944Z,70.88
2017-08-11T09:30:23.541Z,70.88
2017-08-11T09:30:24.143Z,71.08
2017-08-11T09:30:24.743Z,71.08
2017-08-11T09:30:25.341Z,71.08
2017-08-11T09:30:25.941Z,71.08
2017-08-11T09:30:26.541Z,71.17
2017-08-11T09:30:27.137Z,71.17
2017-08-11T09:31:21.621Z,71.36
2017-08-11T09:31:22.214Z,71.65
2017-08-11T09:31:22.816Z,71.46
2017-08-11T09:31:23.412Z,71.46
2017-08-11T09:31:24.022Z,71.59
2017-08-11T09:31:24.613Z,71.40
2017-08-11T09:31:25.216Z,71.36
2017-08-11T09:31:25.819Z,71.69
2017-08-11T09:50:23.203Z,71.33
2017-08-11T09:50:23.777Z,71.33
2017-08-11T09:50:24.374Z,71.04
2017-08-11T09:50:24.978Z,71.52
2017-08-11T09:50:25.576Z,71.33
2017-08-11T09:50:26.177Z,71.14
2017-08-11T09:50:26.773Z,71.33
2017-08-11T09:50:27.382Z,71.26
2017-08-11T09:51:21.861Z,71.23
2017-08-11T09:51:22.454Z,71.33
2017-08-11T09:51:23.058Z,71.23
2017-08-11T09:51:23.654Z,71.23
2017-08-11T09:51:24.253Z,71.23
2017-08-11T09:51:24.851Z,71.33
2017-08-11T09:51:25.458Z,71.23
2017-08-11T09:51:26.054Z,71.04
2017-08-11T09:52:20.535Z,71.33
2017-08-11T09:52:21.134Z,71.23
2017-08-11T09:52:21.732Z,71.23
2017-08-11T09:52:22.330Z,71.23
2017-08-11T09:52:22.929Z,71.23
2017-08-11T09:52:23.531Z,71.23
2017-08-11T09:52:24.126Z,71.23
2017-08-11T09:52:24.734Z,71.23
2017-08-11T09:53:18.188Z,71.04
2017-08-11T09:53:18.784Z,71.04
2017-08-11T09:53:19.390Z,71.04
2017-08-11T09:53:19.984Z,71.04
2017-08-11T09:53:20.581Z,71.23
2017-08-11T09:53:21.191Z,71.04
2017-08-11T09:53:21.784Z,71.04
2017-08-11T09:53:22.385Z,71.04
2017-08-11T09:54:16.889Z,70.68
2017-08-11T09:54:17.472Z,71.17
2017-08-11T09:54:18.054Z,70.98
2017-08-11T09:54:18.663Z,71.17
2017-08-11T09:54:19.258Z,71.14
2017-08-11T09:54:19.854Z,70.84
2017-08-11T09:54:20.452Z,71.14
2017-08-11T09:54:21.052Z,70.98
2017-08-11T09:55:14.515Z,70.68
2017-08-11T09:55:15.110Z,70.78
2017-08-11T09:55:15.709Z,70.68
2017-08-11T09:55:16.314Z,70.68
2017-08-11T09:55:16.911Z,70.88
2017-08-11T09:55:17.511Z,70.68
2017-08-11T09:55:18.109Z,70.88
2017-08-11T09:55:18.710Z,70.78
2017-08-11T09:56:12.169Z,70.88
2017-08-11T09:56:12.759Z,70.88
2017-08-11T09:56:13.363Z,70.78
2017-08-11T09:56:13.966Z,70.88
2017-08-11T09:56:14.561Z,70.88
2017-08-11T09:56:15.165Z,70.68
2017-08-11T09:56:15.766Z,70.68
2017-08-11T09:56:16.364Z,70.78
2017-08-11T09:57:10.844Z,70.68
2017-08-11T09:57:11.442Z,70.78
2017-08-11T09:57:12.036Z,70.98
2017-08-11T09:57:12.635Z,70.68
2017-08-11T09:57:13.233Z,70.88
2017-08-11T09:57:13.837Z,70.68
2017-08-11T09:57:14.432Z,70.78
2017-08-11T09:57:15.038Z,70.68
2017-08-11T09:58:09.520Z,70.98
2017-08-11T09:58:10.118Z,70.88
2017-08-11T09:58:10.717Z,71.17
2017-08-11T09:58:11.318Z,70.98
2017-08-11T09:58:11.916Z,71.08
2017-08-11T09:58:12.513Z,71.08
2017-08-11T09:58:13.112Z,71.17
2017-08-11T09:58:13.719Z,70.88
2017-08-11T09:59:08.194Z,70.11
2017-08-11T09:59:08.786Z,70.11
2017-08-11T09:59:09.394Z,70.15
2017-08-11T09:59:09.990Z,69.92
2017-08-11T09:59:10.593Z,69.92
2017-08-11T09:59:11.189Z,70.11
2017-08-11T09:59:11.789Z,70.11
2017-08-11T09:59:12.394Z,70.11
2017-08-11T10:00:07.175Z,70.40
2017-08-11T10:00:07.689Z,70.40
2017-08-11T10:00:08.283Z,70.40
2017-08-11T10:00:08.891Z,70.40
2017-08-11T10:00:09.489Z,70.40
2017-08-11T10:00:10.085Z,70.40
2017-08-11T10:00:10.690Z,70.30
2017-08-11T10:00:11.285Z,70.40
2017-08-11T10:01:05.343Z,70.40
2017-08-11T10:01:05.935Z,70.40
2017-08-11T10:01:06.537Z,70.40
2017-08-11T10:01:07.134Z,70.50
2017-08-11T10:01:07.737Z,70.40
2017-08-11T10:01:08.340Z,70.40
2017-08-11T10:01:08.940Z,70.30
2017-08-11T10:01:09.533Z,70.40
2017-08-11T10:02:04.016Z,69.44
2017-08-11T10:02:04.614Z,70.50
2017-08-11T10:02:05.207Z,70.40
2017-08-11T10:02:05.811Z,70.50
2017-08-11T10:02:06.411Z,69.73
2017-08-11T10:02:07.014Z,69.53
2017-08-11T10:02:07.617Z,69.53
2017-08-11T10:02:08.216Z,70.50
2017-08-11T10:03:02.692Z,69.57
2017-08-11T10:03:03.284Z,69.53
2017-08-11T10:03:03.887Z,69.63
2017-08-11T10:03:04.485Z,69.44
2017-08-11T10:03:05.087Z,69.44
2017-08-11T10:03:05.732Z,69.53
2017-08-11T10:03:06.293Z,69.67
2017-08-11T10:03:06.887Z,69.53
2017-08-11T10:04:00.341Z,69.73
2017-08-11T10:04:00.938Z,69.73
2017-08-11T10:04:01.584Z,70.11
2017-08-11T10:04:02.141Z,69.63
2017-08-11T10:04:02.778Z,69.85
2017-08-11T10:04:03.388Z,70.40
2017-08-11T10:04:03.988Z,70.59
2017-08-11T10:04:04.544Z,69.73
2017-08-11T10:04:57.998Z,69.82
2017-08-11T10:04:58.589Z,69.82
2017-08-11T10:04:59.191Z,69.73
2017-08-11T10:04:59.796Z,69.53
2017-08-11T10:05:00.387Z,69.63
2017-08-11T10:05:00.994Z,69.82
2017-08-11T10:05:01.592Z,69.53
2017-08-11T10:05:02.189Z,69.76
2017-08-11T10:05:55.673Z,69.73
2017-08-11T10:05:56.239Z,69.92
2017-08-11T10:05:56.840Z,69.73
2017-08-11T10:05:57.439Z,69.92
2017-08-11T10:05:58.043Z,69.82
2017-08-11T10:05:58.644Z,69.82
2017-08-11T10:05:59.247Z,69.82
2017-08-11T10:05:59.843Z,69.73
2017-08-11T10:06:53.302Z,69.34
2017-08-11T10:06:53.891Z,69.24
2017-08-11T10:06:54.498Z,69.24
2017-08-11T10:06:55.093Z,69.24
2017-08-11T10:06:55.699Z,69.73
2017-08-11T10:06:56.296Z,69.34
2017-08-11T10:06:56.893Z,69.24
2017-08-11T10:06:57.493Z,69.24
2017-08-11T10:07:50.951Z,69.73
2017-08-11T10:07:51.548Z,69.34
2017-08-11T10:07:52.147Z,69.73
2017-08-11T10:07:52.746Z,69.73
2017-08-11T10:07:53.345Z,69.34
2017-08-11T10:07:53.948Z,69.44
2017-08-11T10:07:54.549Z,69.34
2017-08-11T10:07:55.150Z,69.34
2017-08-11T10:08:49.625Z,69.53
2017-08-11T10:08:50.224Z,69.63
2017-08-11T10:08:50.820Z,69.63
2017-08-11T10:08:51.420Z,69.73
2017-08-11T10:08:52.018Z,69.63
2017-08-11T10:08:52.616Z,69.53
2017-08-11T10:08:53.225Z,69.63
2017-08-11T10:08:53.821Z,69.63
2017-08-11T10:09:48.297Z,69.53
2017-08-11T10:09:48.900Z,69.53
2017-08-11T10:09:49.495Z,69.34
2017-08-11T10:09:50.092Z,69.63
2017-08-11T10:09:50.697Z,69.63
2017-08-11T10:09:51.296Z,69.63
2017-08-11T10:09:51.900Z,69.73
2017-08-11T10:09:52.496Z,69.34
2017-08-11T10:10:47.002Z,69.34
2017-08-11T10:10:47.576Z,69.44
2017-08-11T10:10:48.169Z,69.44
2017-08-11T10:10:48.776Z,69.24
2017-08-11T10:10:49.371Z,69.34
2017-08-11T10:10:49.969Z,69.24
2017-08-11T10:10:50.569Z,69.44
2017-08-11T10:10:51.173Z,69.24
2017-08-11T10:11:44.632Z,69.34
2017-08-11T10:11:45.226Z,69.34
2017-08-11T10:11:45.828Z,69.34
2017-08-11T10:11:46.421Z,69.34
2017-08-11T10:11:47.027Z,69.24
2017-08-11T10:11:47.625Z,69.24
2017-08-11T10:11:48.231Z,69.63
2017-08-11T10:11:48.828Z,69.24
2017-08-11T10:12:42.277Z,69.63
2017-08-11T10:12:42.878Z,69.63
2017-08-11T10:12:43.473Z,69.44
2017-08-11T10:12:44.076Z,69.63
2017-08-11T10:12:44.678Z,69.73
2017-08-11T10:12:45.277Z,69.34
2017-08-11T10:12:45.873Z,69.34
2017-08-11T10:12:46.482Z,69.44
2017-08-11T10:13:39.935Z,69.34
2017-08-11T10:13:40.527Z,69.24
2017-08-11T10:13:41.127Z,69.24
2017-08-11T10:13:41.724Z,69.24
2017-08-11T10:13:42.335Z,69.73
2017-08-11T10:13:42.927Z,69.53
2017-08-11T10:13:43.528Z,69.63
2017-08-11T10:13:44.127Z,69.44
2017-08-11T10:14:38.603Z,69.34
2017-08-11T10:14:39.201Z,69.63
2017-08-11T10:14:39.803Z,69.63
2017-08-11T10:14:40.407Z,69.34
2017-08-11T10:14:41.004Z,69.24
2017-08-11T10:14:41.608Z,69.34
2017-08-11T10:14:42.203Z,69.34
2017-08-11T10:14:42.804Z,69.53
2017-08-11T10:15:37.280Z,69.15
2017-08-11T10:15:37.883Z,69.15
2017-08-11T10:15:38.476Z,69.06
2017-08-11T10:15:39.074Z,69.15
2017-08-11T10:15:39.678Z,69.24
2017-08-11T10:15:40.282Z,69.15
2017-08-11T10:15:40.877Z,69.15
2017-08-11T10:15:41.476Z,69.15
2017-08-11T10:16:34.963Z,69.44
2017-08-11T10:16:35.531Z,69.44
2017-08-11T10:16:36.134Z,69.44
2017-08-11T10:16:36.731Z,69.44
2017-08-11T10:16:37.335Z,69.40
2017-08-11T10:16:37.933Z,69.44
2017-08-11T10:16:38.536Z,69.63
2017-08-11T10:16:39.131Z,69.44
2017-08-11T10:17:32.587Z,69.02
2017-08-11T10:17:33.185Z,69.15
2017-08-11T10:17:33.787Z,69.15
2017-08-11T10:17:34.382Z,69.24
2017-08-11T10:17:34.987Z,69.53
2017-08-11T10:17:35.590Z,69.15
2017-08-11T10:17:36.186Z,69.15
2017-08-11T10:17:36.778Z,69.15
2017-08-11T10:18:30.238Z,69.40
2017-08-11T10:18:30.835Z,69.50
2017-08-11T10:18:31.434Z,69.31
2017-08-11T10:18:32.033Z,69.50
2017-08-11T10:18:32.638Z,69.63
2017-08-11T10:18:33.235Z,69.31
2017-08-11T10:18:33.837Z,69.31
2017-08-11T10:18:34.437Z,69.40
2017-08-11T10:19:27.887Z,69.60
2017-08-11T10:19:28.486Z,69.60
2017-08-11T10:19:29.085Z,69.50
2017-08-11T10:19:29.690Z,69.50
2017-08-11T10:19:30.285Z,69.40
2017-08-11T10:19:30.880Z,69.50
2017-08-11T10:19:31.485Z,69.50
2017-08-11T10:19:32.089Z,69.40
2017-08-11T10:20:25.545Z,69.02
2017-08-11T10:20:26.134Z,69.12
2017-08-11T10:20:26.738Z,69.21
2017-08-11T10:20:27.338Z,69.12
2017-08-11T10:20:27.941Z,69.21
2017-08-11T10:20:28.539Z,69.21
2017-08-11T10:20:29.138Z,69.12
2017-08-11T10:20:29.739Z,69.12
2017-08-11T10:21:24.252Z,69.40
2017-08-11T10:21:24.813Z,69.12
2017-08-11T10:21:25.412Z,69.40
2017-08-11T10:21:26.016Z,69.12
2017-08-11T10:21:26.612Z,69.50
2017-08-11T10:21:27.211Z,69.21
2017-08-11T10:21:27.815Z,69.12
2017-08-11T10:21:28.412Z,69.12
2017-08-11T10:22:23.403Z,69.12
2017-08-11T10:22:24.001Z,69.12
2017-08-11T10:22:24.596Z,69.12
2017-08-11T10:22:25.202Z,69.12
2017-08-11T10:22:25.796Z,69.12
2017-08-11T10:22:26.396Z,69.12
2017-08-11T10:23:20.438Z,69.31
2017-08-11T10:23:21.043Z,69.50
2017-08-11T10:23:21.635Z,69.50
2017-08-11T10:23:22.241Z,69.40
2017-08-11T10:23:22.841Z,69.31
2017-08-11T10:23:23.442Z,69.69
2017-08-11T10:23:24.036Z,69.31
2017-08-11T10:23:24.641Z,69.69
2017-08-11T10:24:19.120Z,69.50
2017-08-11T10:24:19.716Z,69.02
2017-08-11T10:24:20.311Z,69.50
2017-08-11T10:24:20.909Z,69.40
2017-08-11T10:24:21.513Z,69.21
2017-08-11T10:24:22.116Z,69.12
2017-08-11T10:24:22.712Z,69.21
2017-08-11T10:24:23.312Z,69.12
2017-08-11T10:25:17.796Z,69.12
2017-08-11T10:25:18.384Z,69.12
2017-08-11T10:25:18.989Z,69.12
2017-08-11T10:25:19.592Z,69.12
2017-08-11T10:25:20.186Z,69.12
2017-08-11T10:25:20.789Z,69.21
2017-08-11T10:25:21.386Z,69.02
2017-08-11T10:25:21.984Z,69.40
2017-08-11T10:26:16.467Z,69.40
2017-08-11T10:26:17.065Z,69.31
2017-08-11T10:26:17.664Z,69.31
2017-08-11T10:26:18.260Z,69.31
2017-08-11T10:26:18.860Z,69.40
2017-08-11T10:26:19.463Z,69.31
2017-08-11T10:26:20.065Z,69.31
2017-08-11T10:26:20.665Z,69.31
2017-08-11T10:27:14.142Z,69.12
2017-08-11T10:27:14.716Z,69.40
2017-08-11T10:27:15.321Z,69.12
2017-08-11T10:27:15.918Z,69.12
2017-08-11T10:27:16.518Z,69.12
2017-08-11T10:27:17.116Z,69.50
2017-08-11T10:27:17.717Z,69.12
2017-08-11T10:27:18.317Z,69.02
2017-08-11T10:28:11.773Z,69.50
2017-08-11T10:28:12.367Z,69.31
2017-08-11T10:28:12.979Z,69.40
2017-08-11T10:28:13.573Z,69.40
2017-08-11T10:28:14.169Z,69.40
2017-08-11T10:28:14.771Z,69.31
2017-08-11T10:28:15.371Z,69.60
2017-08-11T10:28:15.971Z,69.40
2017-08-11T10:29:09.428Z,69.21
2017-08-11T10:29:10.022Z,69.12
2017-08-11T10:29:10.617Z,69.02
2017-08-11T10:29:11.221Z,69.12
2017-08-11T10:29:11.825Z,69.21
2017-08-11T10:29:12.421Z,69.21
2017-08-11T10:29:13.023Z,69.12
2017-08-11T10:29:13.619Z,69.02
2017-08-11T10:30:07.075Z,69.31
2017-08-11T10:30:07.676Z,69.02
2017-08-11T10:30:08.273Z,69.21
2017-08-11T10:30:08.873Z,69.31
2017-08-11T10:30:09.473Z,69.21
2017-08-11T10:30:10.068Z,69.21
2017-08-11T10:30:10.668Z,69.31
2017-08-11T10:30:11.274Z,69.31
2017-08-11T10:31:04.723Z,69.12
2017-08-11T10:31:05.323Z,69.12
2017-08-11T10:31:05.920Z,69.12
2017-08-11T10:31:06.525Z,68.92
2017-08-11T10:31:07.122Z,69.12
2017-08-11T10:31:07.726Z,69.12
2017-08-11T10:31:08.323Z,68.92
2017-08-11T10:31:08.926Z,69.12
2017-08-11T10:32:03.438Z,69.02
2017-08-11T10:32:03.996Z,69.02
2017-08-11T10:32:04.602Z,69.12
2017-08-11T10:32:05.195Z,69.02
2017-08-11T10:32:05.802Z,69.12
2017-08-11T10:32:06.395Z,69.12
2017-08-11T10:32:06.994Z,68.83
2017-08-11T10:32:07.598Z,69.12
2017-08-11T10:33:02.076Z,69.02
2017-08-11T10:33:02.673Z,69.02
2017-08-11T10:33:03.275Z,69.02
2017-08-11T10:33:03.871Z,69.02
2017-08-11T10:33:04.473Z,68.83
2017-08-11T10:33:05.075Z,69.02
2017-08-11T10:33:05.675Z,69.02
2017-08-11T10:33:06.271Z,69.02
2017-08-11T10:34:00.759Z,69.12
2017-08-11T10:34:01.355Z,68.92
2017-08-11T10:34:01.950Z,69.12
2017-08-11T10:34:02.545Z,69.02
2017-08-11T10:34:03.151Z,68.92
2017-08-11T10:34:03.751Z,69.12
2017-08-11T10:34:04.349Z,69.21
2017-08-11T10:34:04.950Z,69.31
2017-08-11T10:34:58.414Z,68.83
2017-08-11T10:34:58.999Z,69.60
2017-08-11T10:34:59.609Z,69.12
2017-08-11T10:35:00.201Z,69.31
2017-08-11T10:35:00.800Z,69.21
2017-08-11T10:35:01.405Z,69.40
2017-08-11T10:35:02.005Z,69.31
2017-08-11T10:35:02.601Z,69.31
2017-08-11T10:35:57.084Z,69.31
2017-08-11T10:35:57.674Z,69.63
2017-08-11T10:35:58.281Z,69.69
2017-08-11T10:35:58.877Z,69.21
2017-08-11T10:35:59.472Z,69.50
2017-08-11T10:36:00.072Z,69.60
2017-08-11T10:36:00.674Z,69.31
2017-08-11T10:36:01.274Z,69.31
2017-08-11T10:36:55.752Z,69.40
2017-08-11T10:36:56.355Z,69.12
2017-08-11T10:36:56.958Z,69.60
2017-08-11T10:36:57.552Z,69.50
2017-08-11T10:36:58.153Z,69.50
2017-08-11T10:36:58.756Z,69.40
2017-08-11T10:36:59.350Z,69.31
2017-08-11T10:36:59.954Z,69.40
2017-08-11T10:37:53.427Z,69.12
2017-08-11T10:37:54.001Z,69.12
2017-08-11T10:37:54.610Z,69.12
2017-08-11T10:37:55.209Z,69.02
2017-08-11T10:37:55.805Z,69.24
2017-08-11T10:37:56.403Z,69.06
2017-08-11T10:37:57.009Z,69.12
2017-08-11T10:37:57.605Z,69.12
2017-08-11T10:38:52.083Z,69.44
2017-08-11T10:38:52.685Z,69.44
2017-08-11T10:38:53.281Z,69.21
2017-08-11T10:38:53.879Z,69.44
2017-08-11T10:38:54.476Z,69.02
2017-08-11T10:38:55.080Z,69.44
2017-08-11T10:38:55.683Z,69.60
2017-08-11T10:38:56.280Z,69.40
2017-08-11T10:39:49.736Z,69.06
2017-08-11T10:39:50.336Z,69.24
2017-08-11T10:39:50.933Z,69.24
2017-08-11T10:39:51.531Z,69.24
2017-08-11T10:39:52.130Z,69.24
2017-08-11T10:39:52.770Z,69.44
2017-08-11T10:39:53.327Z,69.24
2017-08-11T10:39:53.933Z,69.24
2017-08-11T10:40:47.387Z,69.06
2017-08-11T10:40:47.979Z,69.34
2017-08-11T10:40:48.583Z,69.15
2017-08-11T10:40:49.184Z,69.24
2017-08-11T10:40:49.787Z,69.44
2017-08-11T10:40:50.383Z,69.15
2017-08-11T10:40:50.988Z,69.44
2017-08-11T10:40:51.610Z,69.24
2017-08-11T10:41:45.040Z,69.34
2017-08-11T10:41:45.636Z,69.44
2017-08-11T10:41:46.235Z,69.53
2017-08-11T10:41:46.835Z,69.63
2017-08-11T10:41:47.436Z,69.24
2017-08-11T10:41:48.036Z,69.34
2017-08-11T10:41:48.636Z,69.53
2017-08-11T10:41:49.235Z,69.63
2017-08-11T10:42:42.691Z,69.24
2017-08-11T10:42:43.289Z,69.24
2017-08-11T10:42:43.888Z,69.24
2017-08-11T10:42:44.490Z,69.24
2017-08-11T10:42:45.088Z,69.06
2017-08-11T10:42:45.688Z,69.24
2017-08-11T10:42:46.291Z,68.96
2017-08-11T10:42:46.886Z,69.06
2017-08-11T10:43:41.387Z,68.57
2017-08-11T10:43:41.962Z,68.86
2017-08-11T10:43:42.558Z,68.48
2017-08-11T10:43:43.161Z,68.48
2017-08-11T10:43:43.762Z,68.57
2017-08-11T10:43:44.361Z,68.51
2017-08-11T10:43:44.964Z,68.57
2017-08-11T10:43:45.559Z,68.99
2017-08-11T10:44:40.038Z,69.06
2017-08-11T10:44:40.638Z,68.96
2017-08-11T10:44:41.235Z,68.99
2017-08-11T10:44:41.841Z,69.06
2017-08-11T10:44:42.433Z,68.96
2017-08-11T10:44:43.041Z,69.18
2017-08-11T10:44:43.637Z,69.09
2017-08-11T10:44:44.236Z,69.06
2017-08-11T10:45:37.694Z,68.96
2017-08-11T10:45:38.294Z,68.96
2017-08-11T10:45:38.891Z,68.96
2017-08-11T10:45:39.495Z,69.18
2017-08-11T10:45:40.090Z,69.34
2017-08-11T10:45:40.693Z,68.96
2017-08-11T10:45:41.289Z,68.96
2017-08-11T10:45:41.889Z,68.96
2017-08-11T10:46:35.342Z,69.28
2017-08-11T10:46:35.944Z,69.09
2017-08-11T10:46:36.555Z,69.09
2017-08-11T10:46:37.144Z,69.06
2017-08-11T10:46:37.741Z,68.80
2017-08-11T10:46:38.337Z,68.76
2017-08-11T10:46:38.942Z,69.47
2017-08-11T10:46:39.544Z,68.70
2017-08-11T12:57:16.397Z,54.87
2017-08-11T12:57:16.978Z,55.07
2017-08-11T12:57:17.578Z,54.97
2017-08-11T12:57:18.173Z,55.07
2017-08-11T12:57:18.773Z,55.16
2017-08-11T12:57:19.369Z,54.97
2017-08-11T12:57:19.972Z,55.07
2017-08-11T12:57:20.572Z,55.07
2017-08-11T12:58:15.083Z,54.97
2017-08-11T12:58:15.666Z,55.16
2017-08-11T12:58:16.254Z,54.97
2017-08-11T12:58:16.854Z,55.16
2017-08-11T12:58:17.450Z,55.35
2017-08-11T12:58:18.051Z,55.26
2017-08-11T12:58:18.647Z,55.16
2017-08-11T12:58:19.257Z,55.26
2017-08-11T12:59:25.510Z,55.83
2017-08-11T12:59:26.100Z,56.13
2017-08-11T12:59:26.704Z,55.35
2017-08-11T12:59:27.300Z,55.65
2017-08-11T12:59:27.912Z,55.45
2017-08-11T12:59:28.499Z,55.35
2017-08-11T12:59:29.099Z,56.22
2017-08-11T12:59:29.704Z,55.65
2017-08-11T13:00:24.182Z,55.65
2017-08-11T13:00:24.783Z,55.65
2017-08-11T13:00:25.379Z,55.35
2017-08-11T13:00:25.978Z,55.45
2017-08-11T13:00:26.578Z,55.45
2017-08-11T13:00:27.184Z,55.65
2017-08-11T13:00:27.779Z,55.45
2017-08-11T13:00:28.377Z,55.74
2017-08-11T13:01:22.858Z,55.93
2017-08-11T13:01:23.452Z,56.03
2017-08-11T13:01:24.058Z,56.03
2017-08-11T13:01:24.655Z,56.03
2017-08-11T13:01:25.251Z,55.55
2017-08-11T13:01:25.850Z,55.65
2017-08-11T13:01:26.449Z,56.13
2017-08-11T13:01:27.054Z,56.22
2017-08-11T13:02:21.542Z,55.93
2017-08-11T13:02:22.131Z,55.93
2017-08-11T13:02:22.728Z,55.93
2017-08-11T13:02:23.335Z,55.93
2017-08-11T13:02:23.951Z,56.00
2017-08-11T13:02:24.530Z,55.74
2017-08-11T13:02:25.130Z,56.03
2017-08-11T13:02:25.729Z,56.03
2017-08-11T13:03:20.237Z,56.20
2017-08-11T13:03:20.806Z,55.90
2017-08-11T13:03:21.406Z,56.00
2017-08-11T13:03:22.003Z,56.00
2017-08-11T13:03:22.609Z,55.90
2017-08-11T13:03:23.222Z,56.20
2017-08-11T13:03:23.805Z,56.00
2017-08-11T13:03:24.409Z,56.00
2017-08-11T13:04:18.885Z,56.68
2017-08-11T13:04:19.487Z,56.68
2017-08-11T13:04:20.079Z,56.48
2017-08-11T13:04:20.684Z,56.20
2017-08-11T13:04:21.282Z,56.68
2017-08-11T13:04:21.877Z,56.58
2017-08-11T13:04:22.496Z,56.68
2017-08-11T13:04:23.082Z,56.58
2017-08-11T13:05:59.035Z,56.94
2017-08-11T13:05:59.627Z,56.58
2017-08-11T13:06:00.225Z,56.94
2017-08-11T13:06:00.827Z,56.94
2017-08-11T13:06:01.427Z,56.74
2017-08-11T13:06:02.023Z,56.77
2017-08-11T13:06:02.624Z,56.94
2017-08-11T13:06:03.227Z,56.94
2017-08-11T13:06:56.685Z,58.19
2017-08-11T13:06:57.283Z,58.19
2017-08-11T13:06:57.884Z,58.29
2017-08-11T13:06:58.485Z,57.90
2017-08-11T13:06:59.078Z,57.90
2017-08-11T13:06:59.684Z,57.62
2017-08-11T13:07:00.277Z,58.10
2017-08-11T13:07:00.881Z,57.90
2017-08-11T13:07:54.338Z,58.87
2017-08-11T13:07:54.937Z,58.77
2017-08-11T13:07:55.537Z,58.77
2017-08-11T13:07:56.134Z,58.87
2017-08-11T13:07:56.737Z,58.87
2017-08-11T13:07:57.328Z,58.77
2017-08-11T13:07:57.933Z,58.68
2017-08-11T13:07:58.538Z,58.87
2017-08-11T13:08:53.035Z,59.52
2017-08-11T13:08:53.604Z,59.52
2017-08-11T13:08:54.210Z,59.71
2017-08-11T13:08:54.811Z,59.61
2017-08-11T13:08:55.409Z,59.61
2017-08-11T13:08:56.017Z,59.61
2017-08-11T13:08:56.611Z,59.61
2017-08-11T13:08:57.208Z,59.61
2017-08-11T13:09:50.665Z,58.45
2017-08-11T13:09:51.263Z,58.55
2017-08-11T13:09:51.858Z,58.84
2017-08-11T13:09:52.464Z,58.55
2017-08-11T13:09:53.059Z,58.65
2017-08-11T13:09:53.662Z,58.65
2017-08-11T13:09:54.258Z,58.55
2017-08-11T13:09:54.868Z,58.75
2017-08-11T13:10:49.339Z,59.52
2017-08-11T13:10:49.936Z,59.61
2017-08-11T13:10:50.537Z,59.71
2017-08-11T13:10:51.140Z,59.80
2017-08-11T13:10:51.736Z,59.52
2017-08-11T13:10:52.340Z,59.71
2017-08-11T13:10:52.936Z,59.58
2017-08-11T13:10:53.536Z,59.42
2017-08-11T13:11:48.016Z,59.87
2017-08-11T13:11:48.617Z,59.48
2017-08-11T13:11:49.211Z,59.48
2017-08-11T13:11:49.815Z,59.78
2017-08-11T13:11:50.415Z,59.78
2017-08-11T13:11:51.008Z,59.52
2017-08-11T13:11:51.612Z,59.68
2017-08-11T13:11:52.211Z,59.87
2017-08-11T13:12:46.692Z,59.78
2017-08-11T13:12:47.291Z,59.68
2017-08-11T13:12:47.887Z,59.97
2017-08-11T13:12:48.484Z,60.16
2017-08-11T13:12:49.088Z,59.87
2017-08-11T13:12:49.688Z,60.06
2017-08-11T13:12:50.289Z,60.16
2017-08-11T13:12:50.891Z,59.97
2017-08-11T13:13:44.368Z,60.83
2017-08-11T13:13:44.939Z,60.45
2017-08-11T13:13:45.538Z,60.83
2017-08-11T13:13:46.141Z,60.83
2017-08-11T13:13:46.740Z,60.74
2017-08-11T13:13:47.344Z,60.93
2017-08-11T13:13:47.943Z,60.83
2017-08-11T13:13:48.544Z,60.93
2017-08-11T13:14:43.020Z,60.35
2017-08-11T13:14:43.619Z,60.35
2017-08-11T13:14:44.212Z,60.16
2017-08-11T13:14:44.818Z,60.35
2017-08-11T13:14:45.415Z,60.35
2017-08-11T13:14:46.018Z,60.64
2017-08-11T13:14:46.621Z,60.26
2017-08-11T13:14:47.216Z,60.35
2017-08-11T13:15:40.668Z,61.13